createdAt,value
2018-05-12T00:02:21.679Z,5.40
2018-05-12T00:04:49.444Z,5.80
2018-05-12T00:07:17.277Z,5.73
2018-05-12T00:09:45.016Z,6.07
2018-05-12T00:12:12.735Z,6.10
2018-05-12T00:14:40.705Z,5.83
2018-05-12T00:17:08.544Z,8.37
2018-05-12T00:19:36.232Z,6.23
2018-05-12T00:22:04.408Z,6.07
2018-05-12T00:24:32.115Z,6.03
2018-05-12T00:27:00.039Z,6.93
2018-05-12T00:29:27.749Z,6.47
2018-05-12T00:31:55.615Z,6.73
2018-05-12T00:34:23.441Z,6.87
2018-05-12T00:36:51.149Z,6.63
2018-05-12T00:39:18.964Z,6.60
2018-05-12T00:41:46.627Z,5.70
2018-05-12T00:44:14.392Z,5.67
2018-05-12T00:46:42.155Z,6.23
2018-05-12T00:49:09.916Z,6.90
2018-05-12T00:51:37.650Z,5.87
2018-05-12T00:54:05.448Z,5.60
2018-05-12T00:56:33.111Z,6.63
2018-05-12T00:59:00.934Z,7.10
2018-05-12T01:01:28.746Z,7.70
2018-05-12T01:03:56.561Z,6.40
2018-05-12T01:06:24.373Z,5.77
2018-05-12T01:08:52.197Z,6.30
2018-05-12T01:11:20.006Z,7.57
2018-05-12T01:13:47.770Z,6.47
2018-05-12T01:16:15.619Z,6.57
2018-05-12T01:18:43.403Z,7.60
2018-05-12T01:21:11.269Z,6.60
2018-05-12T01:23:39.136Z,7.00
2018-05-12T01:26:06.882Z,5.77
2018-05-12T01:28:34.664Z,5.93
2018-05-12T01:31:02.329Z,7.83
2018-05-12T01:33:30.095Z,6.67
2018-05-12T01:35:57.855Z,7.87
2018-05-12T01:38:25.623Z,7.03
2018-05-12T01:40:53.384Z,7.20
2018-05-12T01:43:21.147Z,6.90
2018-05-12T01:45:49.016Z,7.77
2018-05-12T01:48:16.729Z,7.50
2018-05-12T01:50:44.442Z,7.07
2018-05-12T01:53:12.207Z,9.73
2018-05-12T01:55:39.935Z,6.60
2018-05-12T01:58:07.726Z,6.90
2018-05-12T02:00:35.501Z,5.83
2018-05-12T02:03:03.161Z,5.83
2018-05-12T02:05:31.030Z,6.50
2018-05-12T02:07:58.743Z,6.83
2018-05-12T02:10:26.453Z,6.37
2018-05-12T02:12:54.223Z,6.63
2018-05-12T02:15:21.937Z,7.00
2018-05-12T02:17:49.648Z,6.83
2018-05-12T02:20:17.302Z,9.93
2018-05-12T02:22:45.076Z,7.07
2018-05-12T02:25:12.882Z,10.53
2018-05-12T02:27:40.603Z,7.73
2018-05-12T02:30:08.315Z,7.17
2018-05-12T02:32:36.131Z,6.40
2018-05-12T02:35:03.895Z,6.40
2018-05-12T02:37:31.769Z,6.57
2018-05-12T02:39:59.607Z,7.00
2018-05-12T02:42:27.474Z,7.43
2018-05-12T02:44:55.262Z,7.60
2018-05-12T02:47:23.128Z,6.70
2018-05-12T02:49:50.790Z,7.30
2018-05-12T02:52:18.515Z,6.03
2018-05-12T02:54:46.211Z,6.57
2018-05-12T02:57:14.084Z,8.80
2018-05-12T02:59:42.059Z,6.83
2018-05-12T03:02:09.925Z,6.70
2018-05-12T03:04:37.686Z,7.17
2018-05-12T03:07:05.653Z,8.80
2018-05-12T03:09:33.419Z,5.90
2018-05-12T03:12:01.182Z,6.57
2018-05-12T03:14:28.915Z,7.00
2018-05-12T03:16:56.698Z,5.57
2018-05-12T03:19:24.479Z,6.23
2018-05-12T03:21:52.441Z,5.80
2018-05-12T03:24:20.211Z,6.60
2018-05-12T03:26:47.976Z,6.70
2018-05-12T03:29:15.841Z,7.23
2018-05-12T03:31:43.556Z,6.40
2018-05-12T03:34:11.369Z,7.23
2018-05-12T03:36:39.089Z,6.50
2018-05-12T03:39:06.900Z,6.90
2018-05-12T03:41:34.667Z,6.03
2018-05-12T03:44:02.530Z,10.23
2018-05-12T03:46:30.398Z,6.97
2018-05-12T03:48:58.160Z,7.00
2018-05-12T03:51:25.926Z,7.73
2018-05-12T03:53:53.690Z,6.23
2018-05-12T03:56:21.348Z,7.50
2018-05-12T03:58:49.222Z,7.23
2018-05-12T04:01:16.984Z,6.90
2018-05-12T04:03:44.850Z,7.40
2018-05-12T04:09:26.567Z,7.40
2018-05-12T04:12:06.210Z,6.30
2018-05-12T04:14:34.075Z,6.70
2018-05-12T04:17:01.737Z,6.37
2018-05-12T04:19:29.569Z,7.50
2018-05-12T04:21:57.358Z,7.07
2018-05-12T04:24:25.131Z,6.70
2018-05-12T04:26:52.898Z,6.30
2018-05-12T04:29:20.755Z,8.87
2018-05-12T04:31:48.527Z,6.00
2018-05-12T04:34:16.209Z,6.87
2018-05-12T04:36:43.855Z,7.00
2018-05-12T04:39:11.618Z,7.40
2018-05-12T04:41:39.484Z,6.77
2018-05-12T04:44:07.327Z,6.70
2018-05-12T04:46:35.117Z,9.93
2018-05-12T04:49:02.838Z,7.00
2018-05-12T04:51:30.643Z,6.80
2018-05-12T04:53:58.409Z,6.20
2018-05-12T04:56:26.277Z,6.90
2018-05-12T04:58:53.932Z,6.27
2018-05-12T05:01:21.625Z,5.67
2018-05-12T05:03:49.470Z,6.03
2018-05-12T05:06:17.182Z,7.40
2018-05-12T05:08:44.994Z,6.80
2018-05-12T05:11:12.814Z,9.10
2018-05-12T05:13:40.523Z,7.60
2018-05-12T05:16:08.289Z,8.33
2018-05-12T05:18:35.949Z,7.07
2018-05-12T05:21:03.817Z,12.13
2018-05-12T05:23:31.672Z,10.33
2018-05-12T05:25:59.390Z,7.20
2018-05-12T05:28:27.155Z,7.27
2018-05-12T05:30:54.978Z,6.20
2018-05-12T05:33:22.741Z,7.43
2018-05-12T05:35:50.456Z,6.67
2018-05-12T05:38:18.272Z,6.77
2018-05-12T05:40:46.035Z,7.00
2018-05-12T05:43:13.827Z,6.90
2018-05-12T05:45:41.455Z,6.30
2018-05-12T05:48:09.125Z,7.13
2018-05-12T05:50:36.889Z,6.87
2018-05-12T05:53:04.598Z,6.50
2018-05-12T05:55:32.316Z,7.60
2018-05-12T05:58:00.200Z,7.57
2018-05-12T06:00:27.897Z,6.90
2018-05-12T06:02:55.726Z,6.53
2018-05-12T06:05:23.374Z,7.43
2018-05-12T06:07:51.344Z,6.60
2018-05-12T06:10:19.065Z,6.67
2018-05-12T06:12:46.879Z,7.50
2018-05-12T06:15:14.531Z,7.50
2018-05-12T06:17:42.401Z,6.60
2018-05-12T06:20:10.112Z,7.43
2018-05-12T06:22:37.876Z,7.20
2018-05-12T06:25:05.694Z,6.63
2018-05-12T06:27:33.381Z,7.10
2018-05-12T06:30:01.122Z,6.90
2018-05-12T06:32:28.781Z,7.00
2018-05-12T06:34:56.538Z,8.37
2018-05-12T06:37:24.399Z,6.70
2018-05-12T06:39:52.181Z,8.60
2018-05-12T06:42:19.882Z,6.57
2018-05-12T06:44:47.708Z,7.50
2018-05-12T06:47:15.419Z,6.70
2018-05-12T06:49:43.234Z,9.23
2018-05-12T06:52:11.034Z,8.23
2018-05-12T06:54:38.867Z,8.70
2018-05-12T06:57:06.584Z,6.30
2018-05-12T06:59:34.399Z,7.67
2018-05-12T07:02:02.161Z,7.10
2018-05-12T07:04:30.032Z,7.00
2018-05-12T07:06:57.894Z,7.70
2018-05-12T07:09:25.618Z,7.27
2018-05-12T07:11:53.427Z,9.23
2018-05-12T07:14:21.136Z,7.53
2018-05-12T07:16:48.946Z,8.10
2018-05-12T07:19:16.664Z,7.67
2018-05-12T07:21:44.482Z,7.70
2018-05-12T07:24:12.197Z,7.53
2018-05-12T07:26:40.086Z,8.13
2018-05-12T07:29:07.878Z,7.60
2018-05-12T07:31:35.644Z,7.23
2018-05-12T07:34:03.412Z,7.53
2018-05-12T07:36:31.274Z,7.20
2018-05-12T07:38:59.053Z,7.83
2018-05-12T07:41:26.906Z,8.30
2018-05-12T07:43:54.657Z,8.43
2018-05-12T07:46:22.332Z,8.27
2018-05-12T07:48:49.994Z,7.77
2018-05-12T07:51:17.862Z,8.03
2018-05-12T07:53:45.523Z,8.97
2018-05-12T07:56:13.391Z,8.37
2018-05-12T07:58:41.053Z,8.53
2018-05-12T08:01:08.920Z,8.27
2018-05-12T08:03:36.580Z,7.47
2018-05-12T08:06:04.285Z,9.33
2018-05-12T08:08:32.724Z,8.50
2018-05-12T08:11:00.591Z,7.80
2018-05-12T08:13:28.247Z,8.50
2018-05-12T08:15:56.081Z,10.27
2018-05-12T08:18:23.780Z,10.37
2018-05-12T08:20:51.648Z,10.13
2018-05-12T08:23:19.380Z,9.90
2018-05-12T08:25:47.073Z,9.53
2018-05-12T08:28:14.938Z,11.07
2018-05-12T08:30:42.778Z,9.10
2018-05-12T08:33:10.575Z,7.80
2018-05-12T08:35:38.439Z,11.37
2018-05-12T08:38:06.184Z,8.70
2018-05-12T08:40:34.178Z,9.07
2018-05-12T08:43:02.038Z,12.80
2018-05-12T08:45:29.908Z,11.20
2018-05-12T08:47:57.648Z,12.40
2018-05-12T08:50:25.489Z,10.67
2018-05-12T08:52:53.306Z,9.07
2018-05-12T08:55:21.355Z,9.00
2018-05-12T08:57:49.141Z,10.30
2018-05-12T09:00:17.009Z,9.67
2018-05-12T09:02:44.775Z,10.87
2018-05-12T09:05:12.637Z,10.07
2018-05-12T09:07:40.403Z,11.57
2018-05-12T09:10:08.270Z,12.77
2018-05-12T09:12:35.993Z,10.20
2018-05-12T09:15:03.800Z,7.83
2018-05-12T09:17:31.626Z,12.03
2018-05-12T09:19:59.439Z,9.70
2018-05-12T09:22:27.298Z,10.00
2018-05-12T09:24:55.055Z,12.03
2018-05-12T09:27:22.929Z,13.80
2018-05-12T09:29:50.592Z,10.37
2018-05-12T09:32:18.253Z,9.00
2018-05-12T09:34:45.906Z,11.07
2018-05-12T09:37:13.635Z,9.93
2018-05-12T09:39:41.341Z,12.07
2018-05-12T09:42:09.209Z,9.77
2018-05-12T09:44:37.079Z,9.87
2018-05-12T09:47:04.945Z,9.57
2018-05-12T09:49:32.650Z,10.37
2018-05-12T09:52:00.470Z,9.80
2018-05-12T09:54:28.235Z,10.03
2018-05-12T09:56:56.050Z,10.50
2018-05-12T09:59:23.870Z,8.00
2018-05-12T10:01:51.682Z,10.60
2018-05-12T10:04:19.498Z,8.70
2018-05-12T10:06:47.162Z,9.83
2018-05-12T10:09:14.926Z,9.77
2018-05-12T10:11:42.792Z,5.67
2018-05-12T10:14:10.520Z,9.33
2018-05-12T10:16:38.310Z,9.20
2018-05-12T10:19:06.085Z,8.80
2018-05-12T10:21:33.898Z,9.40
2018-05-12T10:24:01.719Z,10.30
2018-05-12T10:26:29.790Z,6.83
2018-05-12T10:28:57.495Z,8.80
2018-05-12T10:31:25.321Z,8.50
2018-05-12T10:33:53.186Z,9.00
2018-05-12T10:36:20.898Z,8.83
2018-05-12T10:38:48.718Z,9.87
2018-05-12T10:41:16.533Z,9.17
2018-05-12T10:43:44.347Z,9.60
2018-05-12T10:46:12.067Z,5.97
2018-05-12T10:48:39.877Z,10.20
2018-05-12T10:51:07.639Z,8.03
2018-05-12T10:53:35.368Z,7.60
2018-05-12T10:56:03.272Z,8.23
2018-05-12T10:58:30.924Z,11.70
2018-05-12T11:00:58.670Z,8.10
2018-05-12T11:03:26.463Z,8.30
2018-05-12T11:05:54.229Z,8.40
2018-05-12T11:08:22.070Z,9.20
2018-05-12T11:10:49.760Z,8.07
2018-05-12T11:13:17.479Z,8.63
2018-05-12T11:15:45.178Z,8.90
2018-05-12T11:18:12.947Z,8.47
2018-05-12T11:20:40.812Z,9.17
2018-05-12T11:23:08.577Z,6.43
2018-05-12T11:25:36.444Z,8.63
2018-05-12T11:28:04.157Z,7.83
2018-05-12T11:30:31.978Z,7.47
2018-05-12T11:32:59.733Z,6.93
2018-05-12T11:35:27.502Z,5.40
2018-05-12T11:37:55.267Z,6.10
2018-05-12T11:40:23.032Z,10.17
2018-05-12T11:42:50.897Z,7.60
2018-05-12T11:45:18.554Z,6.97
2018-05-12T11:47:46.431Z,8.47
2018-05-12T11:50:14.096Z,5.30
2018-05-12T11:52:41.904Z,7.40
2018-05-12T11:55:09.620Z,6.00
2018-05-12T11:57:37.466Z,6.43
2018-05-12T12:00:05.217Z,7.97
2018-05-12T12:02:33.054Z,6.73
2018-05-12T12:05:00.676Z,6.40
2018-05-12T12:07:28.545Z,6.40
2018-05-12T12:09:56.271Z,5.73
2018-05-12T12:12:24.073Z,6.30
2018-05-12T12:14:51.737Z,7.00
2018-05-12T12:17:19.598Z,7.07
2018-05-12T12:19:47.318Z,6.23
2018-05-12T12:22:15.134Z,4.20
2018-05-12T12:24:42.896Z,5.80
2018-05-12T12:27:10.764Z,6.17
2018-05-12T12:29:38.484Z,5.77
2018-05-12T12:32:06.291Z,6.80
2018-05-12T12:34:34.055Z,5.83
2018-05-12T12:37:01.925Z,5.90
2018-05-12T12:39:29.686Z,6.60
2018-05-12T12:41:57.451Z,5.00
2018-05-12T12:44:25.241Z,7.10
2018-05-12T12:46:53.029Z,5.43
2018-05-12T12:49:20.848Z,5.60
2018-05-12T12:51:48.761Z,5.53
2018-05-12T12:54:16.477Z,5.53
2018-05-12T12:56:44.347Z,5.00
2018-05-12T12:59:12.110Z,4.37
2018-05-12T13:01:39.977Z,2.90
2018-05-12T13:04:07.750Z,4.73
2018-05-12T13:06:35.564Z,5.23
2018-05-12T13:09:03.373Z,5.23
2018-05-12T13:11:31.035Z,6.30
2018-05-12T13:13:58.800Z,6.17
2018-05-12T13:16:26.566Z,5.30
2018-05-12T13:18:54.329Z,5.60
2018-05-12T13:21:22.195Z,5.97
2018-05-12T13:23:49.959Z,4.63
2018-05-12T13:26:17.677Z,4.63
2018-05-12T13:28:45.490Z,6.13
2018-05-12T13:31:13.255Z,6.23
2018-05-12T13:33:41.061Z,6.17
2018-05-12T13:36:08.748Z,5.80
2018-05-12T13:38:36.547Z,5.27
2018-05-12T13:41:04.306Z,5.53
2018-05-12T13:43:32.282Z,6.33
2018-05-12T13:46:00.045Z,5.43
2018-05-12T13:48:27.912Z,5.13
2018-05-12T13:50:55.625Z,6.03
2018-05-12T13:53:23.442Z,5.13
2018-05-12T13:55:51.256Z,5.27
2018-05-12T13:58:19.073Z,5.93
2018-05-12T14:00:46.837Z,4.43
2018-05-12T14:03:14.704Z,4.50
2018-05-12T14:05:42.467Z,5.87
2018-05-12T14:08:10.344Z,5.37
2018-05-12T14:10:38.099Z,4.73
2018-05-12T14:13:05.827Z,5.03
2018-05-12T14:15:34.140Z,4.90
2018-05-12T14:18:01.905Z,4.97
2018-05-12T14:20:29.628Z,4.80
2018-05-12T14:22:57.435Z,4.63
2018-05-12T14:25:25.098Z,6.30
2018-05-12T14:27:52.803Z,5.20
2018-05-12T14:30:20.627Z,4.97
2018-05-12T14:32:48.492Z,4.73
2018-05-12T14:35:16.206Z,4.97
2018-05-12T14:37:44.228Z,5.07
2018-05-12T14:40:11.939Z,5.20
2018-05-12T14:42:39.788Z,7.80
2018-05-12T14:45:07.727Z,4.83
2018-05-12T14:47:35.699Z,5.23
2018-05-12T14:50:03.467Z,4.67
2018-05-12T14:52:31.276Z,5.00
2018-05-12T14:54:59.094Z,5.00
2018-05-12T14:57:26.962Z,5.07
2018-05-12T14:59:54.678Z,5.03
2018-05-12T15:02:22.506Z,4.50
2018-05-12T15:04:50.301Z,5.60
2018-05-12T15:07:18.119Z,6.13
2018-05-12T15:09:46.091Z,4.40
2018-05-12T15:12:13.816Z,5.60
2018-05-12T15:14:41.555Z,4.43
2018-05-12T15:17:09.312Z,5.37
2018-05-12T15:19:37.147Z,4.50
2018-05-12T15:22:04.908Z,6.40
2018-05-12T15:24:32.776Z,4.07
2018-05-12T15:27:00.437Z,4.20
2018-05-12T15:29:28.203Z,4.70
2018-05-12T15:31:55.915Z,5.20
2018-05-12T15:34:23.624Z,5.20
2018-05-12T15:36:51.396Z,4.03
2018-05-12T15:39:19.260Z,7.90
2018-05-12T15:41:46.922Z,4.27
2018-05-12T15:44:14.775Z,4.40
2018-05-12T15:46:42.354Z,3.80
2018-05-12T15:49:10.217Z,4.60
2018-05-12T15:51:37.982Z,5.67
2018-05-12T15:54:05.747Z,5.33
2018-05-12T15:56:33.399Z,5.50
2018-05-12T15:59:01.174Z,6.60
2018-05-12T16:01:28.880Z,4.83
2018-05-12T16:03:56.646Z,4.30
2018-05-12T16:06:24.467Z,4.60
2018-05-12T16:08:52.198Z,4.53
2018-05-12T16:11:19.998Z,5.13
2018-05-12T16:13:47.717Z,4.60
2018-05-12T16:16:15.529Z,4.73
2018-05-12T16:18:43.291Z,4.40
2018-05-12T16:21:11.154Z,4.40
2018-05-12T16:23:38.919Z,4.57
2018-05-12T16:26:06.682Z,4.67
2018-05-12T16:28:34.448Z,4.67
2018-05-12T16:31:02.160Z,5.10
2018-05-12T16:33:29.976Z,5.20
2018-05-12T16:35:57.641Z,5.30
2018-05-12T16:38:25.405Z,5.83
2018-05-12T16:40:53.167Z,4.50
2018-05-12T16:43:20.997Z,4.73
2018-05-12T16:45:48.738Z,4.23
2018-05-12T16:48:16.555Z,4.80
2018-05-12T16:50:44.405Z,4.67
2018-05-12T16:53:12.094Z,4.40
2018-05-12T16:55:39.807Z,4.40
2018-05-12T16:58:07.622Z,5.77
2018-05-12T17:00:35.354Z,4.97
2018-05-12T17:03:03.152Z,4.80
2018-05-12T17:05:30.917Z,5.10
2018-05-12T17:07:58.643Z,4.67
2018-05-12T17:10:26.447Z,4.40
2018-05-12T17:12:54.312Z,4.87
2018-05-12T17:15:22.044Z,6.00
2018-05-12T17:17:49.742Z,4.50
2018-05-12T17:20:17.518Z,4.83
2018-05-12T17:22:45.379Z,5.10
2018-05-12T17:25:13.246Z,4.53
2018-05-12T17:27:41.000Z,5.30
2018-05-12T17:30:08.655Z,5.07
2018-05-12T17:32:36.429Z,4.60
2018-05-12T17:35:04.132Z,5.33
2018-05-12T17:37:31.856Z,5.03
2018-05-12T17:39:59.518Z,4.57
2018-05-12T17:42:27.276Z,4.70
2018-05-12T17:44:55.250Z,4.20
2018-05-12T17:47:23.007Z,5.00
2018-05-12T17:49:50.776Z,4.40
2018-05-12T17:52:18.443Z,4.53
2018-05-12T17:54:46.206Z,4.73
2018-05-12T17:57:13.961Z,5.27
2018-05-12T17:59:41.675Z,4.50
2018-05-12T18:02:09.392Z,4.70
2018-05-12T18:04:37.111Z,5.37
2018-05-12T18:07:04.925Z,4.40
2018-05-12T18:09:32.692Z,4.50
2018-05-12T18:12:00.455Z,4.30
2018-05-12T18:14:28.178Z,4.77
2018-05-12T18:16:55.983Z,5.50
2018-05-12T18:19:23.645Z,4.50
2018-05-12T18:21:51.358Z,5.13
2018-05-12T18:24:19.171Z,4.90
2018-05-12T18:26:46.829Z,6.03
2018-05-12T18:29:14.602Z,5.07
2018-05-12T18:31:42.369Z,5.43
2018-05-12T18:34:10.027Z,5.50
2018-05-12T18:36:37.682Z,5.03
2018-05-12T18:39:05.660Z,6.07
2018-05-12T18:41:33.367Z,5.20
2018-05-12T18:44:01.292Z,5.20
2018-05-12T18:46:28.954Z,5.47
2018-05-12T18:48:56.711Z,5.40
2018-05-12T18:51:24.434Z,5.73
2018-05-12T18:53:52.246Z,4.90
2018-05-12T18:56:19.927Z,5.97
2018-05-12T18:58:47.778Z,5.47
2018-05-12T19:01:15.476Z,5.67
2018-05-12T19:03:43.245Z,6.67
2018-05-12T19:06:10.967Z,5.80
2018-05-12T19:08:38.679Z,5.90
2018-05-12T19:11:06.494Z,4.70
2018-05-12T19:13:34.136Z,5.70
2018-05-12T19:16:01.820Z,5.53
2018-05-12T19:18:29.480Z,6.23
2018-05-12T19:20:57.144Z,4.83
2018-05-12T19:23:24.805Z,6.47
2018-05-12T19:25:52.571Z,5.97
2018-05-12T19:28:20.237Z,5.63
2018-05-12T19:30:47.999Z,5.37
2018-05-12T19:33:15.755Z,5.27
2018-05-12T19:35:43.527Z,5.10
2018-05-12T19:38:11.431Z,5.07
2018-05-12T19:40:39.260Z,4.67
2018-05-12T19:43:07.190Z,5.27
2018-05-12T19:45:35.099Z,5.20
2018-05-12T19:48:02.969Z,5.50
2018-05-12T19:50:30.691Z,5.10
2018-05-12T19:52:58.381Z,5.00
2018-05-12T19:55:26.101Z,4.90
2018-05-12T19:57:53.917Z,4.93
2018-05-12T20:00:21.581Z,4.70
2018-05-12T20:02:49.346Z,4.77
2018-05-12T20:05:17.112Z,4.80
2018-05-12T20:07:44.867Z,5.10
2018-05-12T20:10:12.537Z,4.93
2018-05-12T20:12:40.403Z,4.40
2018-05-12T20:15:08.175Z,5.03
2018-05-12T20:17:35.933Z,4.53
2018-05-12T20:20:03.690Z,5.20
2018-05-12T20:22:31.362Z,4.33
2018-05-12T20:24:59.059Z,4.70
2018-05-12T20:27:26.744Z,5.30
2018-05-12T20:29:54.489Z,5.40
2018-05-12T20:32:22.212Z,5.40
2018-05-12T20:34:49.875Z,5.23
2018-05-12T20:37:17.504Z,5.03
2018-05-12T20:39:45.259Z,4.93
2018-05-12T20:42:13.681Z,4.67
2018-05-12T20:44:41.445Z,4.90
2018-05-12T20:47:09.106Z,4.60
2018-05-12T20:49:36.945Z,5.07
2018-05-12T20:52:04.636Z,4.93
2018-05-12T20:54:32.299Z,4.80
2018-05-12T20:57:00.026Z,4.40
2018-05-12T20:59:27.821Z,4.67
2018-05-12T21:01:55.695Z,6.67
2018-05-12T21:04:23.560Z,4.87
2018-05-12T21:06:51.269Z,4.80
2018-05-12T21:09:19.091Z,5.00
2018-05-12T21:11:46.755Z,5.57
2018-05-12T21:14:14.519Z,4.30
2018-05-12T21:16:42.284Z,5.63
2018-05-12T21:19:10.147Z,5.77
2018-05-12T21:21:37.911Z,6.40
2018-05-12T21:24:05.778Z,5.93
2018-05-12T21:26:33.484Z,6.43
2018-05-12T21:29:01.299Z,6.30
2018-05-12T21:31:28.969Z,8.70
2018-05-12T21:33:56.735Z,6.40
2018-05-12T21:36:24.502Z,6.03
2018-05-12T21:38:52.268Z,6.60
2018-05-12T21:41:20.034Z,5.77
2018-05-12T21:43:47.690Z,5.77
2018-05-12T21:46:15.455Z,6.03
2018-05-12T21:48:43.219Z,6.00
2018-05-12T21:51:10.987Z,6.37
2018-05-12T21:53:38.851Z,5.53
2018-05-12T21:56:06.563Z,6.47
2018-05-12T21:58:34.380Z,6.60
2018-05-12T22:01:02.144Z,6.03
2018-05-12T22:03:29.909Z,7.00
2018-05-12T22:05:57.676Z,5.77
2018-05-12T22:08:25.439Z,6.30
2018-05-12T22:10:53.099Z,5.73
2018-05-12T22:13:20.866Z,8.87
2018-05-12T22:15:48.722Z,6.00
2018-05-12T22:18:16.498Z,6.30
2018-05-12T22:20:44.260Z,6.10
2018-05-12T22:23:11.988Z,6.60
2018-05-12T22:25:39.796Z,5.17
2018-05-12T22:28:07.453Z,6.80
2018-05-12T22:30:35.348Z,5.47
2018-05-12T22:33:03.046Z,4.93
2018-05-12T22:35:30.745Z,5.97
2018-05-12T22:37:58.398Z,5.40
2018-05-12T22:40:26.172Z,5.70
2018-05-12T22:42:53.936Z,6.37
2018-05-12T22:45:21.803Z,7.00
2018-05-12T22:47:49.528Z,6.13
2018-05-12T22:50:17.332Z,6.27
2018-05-12T22:52:44.994Z,6.70
2018-05-12T22:55:13.681Z,6.80
2018-05-12T22:57:41.343Z,6.23
2018-05-12T23:00:09.210Z,6.07
2018-05-12T23:02:36.923Z,6.67
2018-05-12T23:05:04.637Z,5.80
2018-05-12T23:07:32.404Z,5.67
2018-05-12T23:10:00.062Z,6.87
2018-05-12T23:12:27.828Z,7.17
2018-05-12T23:14:55.591Z,6.57
2018-05-12T23:17:23.355Z,7.73
2018-05-12T23:19:51.066Z,6.00
2018-05-12T23:22:18.888Z,6.43
2018-05-12T23:24:46.600Z,5.87
2018-05-12T23:27:14.414Z,6.00
2018-05-12T23:29:42.180Z,7.10
2018-05-12T23:32:10.049Z,6.47
2018-05-12T23:34:37.890Z,5.57
2018-05-12T23:37:05.633Z,5.80
2018-05-12T23:39:33.451Z,5.33
2018-05-12T23:42:01.317Z,5.53
2018-05-12T23:44:29.136Z,5.80
2018-05-12T23:46:56.942Z,5.97
2018-05-12T23:49:24.776Z,5.77
2018-05-12T23:51:52.574Z,5.30
2018-05-12T23:54:20.301Z,5.23
2018-05-12T23:56:48.099Z,5.70
2018-05-12T23:59:15.863Z,4.73
